地図

経路データ

SID SEASON NUMBER BASIN SUBBASIN NAME ISO_TIME NATURE LAT LON WMO_WIND WMO_PRES WMO_AGENCY TRACK_TYPE DIST2LAND LANDFALL IFLAG USA_AGENCY USA_ATCF_ID USA_LAT USA_LON USA_RECORD USA_STATUS USA_WIND USA_PRES USA_SSHS USA_R34_NE USA_R34_SE USA_R34_SW USA_R34_NW USA_R50_NE USA_R50_SE USA_R50_SW USA_R50_NW USA_R64_NE USA_R64_SE USA_R64_SW USA_R64_NW USA_POCI USA_ROCI USA_RMW USA_EYE TOKYO_LAT TOKYO_LON TOKYO_GRADE TOKYO_WIND TOKYO_PRES TOKYO_R50_DIR TOKYO_R50_LONG TOKYO_R50_SHORT TOKYO_R30_DIR TOKYO_R30_LONG TOKYO_R30_SHORT TOKYO_LAND CMA_LAT CMA_LON CMA_CAT CMA_WIND CMA_PRES HKO_LAT HKO_LON HKO_CAT HKO_WIND HKO_PRES NEWDELHI_LAT NEWDELHI_LON NEWDELHI_GRADE NEWDELHI_WIND NEWDELHI_PRES NEWDELHI_CI NEWDELHI_DP NEWDELHI_POCI REUNION_LAT REUNION_LON REUNION_TYPE REUNION_WIND REUNION_PRES REUNION_TNUM REUNION_CI REUNION_RMW REUNION_R34_NE REUNION_R34_SE REUNION_R34_SW REUNION_R34_NW REUNION_R50_NE REUNION_R50_SE REUNION_R50_SW REUNION_R50_NW REUNION_R64_NE REUNION_R64_SE REUNION_R64_SW REUNION_R64_NW BOM_LAT BOM_LON BOM_TYPE BOM_WIND BOM_PRES BOM_TNUM BOM_CI BOM_RMW BOM_R34_NE BOM_R34_SE BOM_R34_SW BOM_R34_NW BOM_R50_NE BOM_R50_SE BOM_R50_SW BOM_R50_NW BOM_R64_NE BOM_R64_SE BOM_R64_SW BOM_R64_NW BOM_ROCI BOM_POCI BOM_EYE BOM_POS_METHOD BOM_PRES_METHOD NADI_LAT NADI_LON NADI_CAT NADI_WIND NADI_PRES WELLINGTON_LAT WELLINGTON_LON WELLINGTON_WIND WELLINGTON_PRES DS824_LAT DS824_LON DS824_STAGE DS824_WIND DS824_PRES TD9636_LAT TD9636_LON TD9636_STAGE TD9636_WIND TD9636_PRES TD9635_LAT TD9635_LON TD9635_WIND TD9635_PRES TD9635_ROCI NEUMANN_LAT NEUMANN_LON NEUMANN_CLASS NEUMANN_WIND NEUMANN_PRES MLC_LAT MLC_LON MLC_CLASS MLC_WIND MLC_PRES USA_GUST BOM_GUST BOM_GUST_PER REUNION_GUST REUNION_GUST_PER USA_SEAHGT USA_SEARAD_NE USA_SEARAD_SE USA_SEARAD_SW USA_SEARAD_NW STORM_SPEED STORM_DIR
1947018S14059 1947 6 SI MM NOT_NAMED 1947-01-18 06:00:00 NR -13.5000 59.2000 reunion main 755 744 _____O________ -1 -13.5000 59.2000 99 9.90000 3 142
1947018S14059 1947 6 SI MM NOT_NAMED 1947-01-18 09:00:00 NR -13.6360 59.3062 main 747 727 _____P________ -1 -13.6360 59.3062 99 3 143
1947018S14059 1947 6 SI MM NOT_NAMED 1947-01-18 12:00:00 NR -13.7721 59.4132 main 727 719 _____P________ -1 -13.7721 59.4132 99 3 143
1947018S14059 1947 6 SI MM NOT_NAMED 1947-01-18 15:00:00 NR -13.9084 59.5213 main 719 711 _____P________ -1 -13.9084 59.5213 99 3 142
1947018S14059 1947 6 SI MM NOT_NAMED 1947-01-18 18:00:00 NR -14.0452 59.6313 main 711 693 _____P________ -1 -14.0452 59.6313 99 4 142
1947018S14059 1947 6 SI MM NOT_NAMED 1947-01-18 21:00:00 NR -14.1826 59.7435 main 693 686 _____P________ -1 -14.1826 59.7435 99 4 141
1947018S14059 1947 6 SI MM NOT_NAMED 1947-01-19 00:00:00 NR -14.3208 59.8587 main 689 665 _____P________ -1 -14.3208 59.8587 99 4 141
1947018S14059 1947 6 SI MM NOT_NAMED 1947-01-19 03:00:00 NR -14.4599 59.9774 main 672 672 _____P________ -1 -14.4599 59.9774 99 17 72
1947018S14059 1947 6 SI MM NOT_NAMED 1947-01-19 06:00:00 TS -13.7857 61.5571 reunion main 817 817 O____O___OO___ jtwc_sh SH101947 -12.7000 63.5000 -1 -14.6000 60.1000 99 9.90000 -12.7000 63.5000 TC 25 -12.7000 63.5000 7 23 71
1947018S14059 1947 6 SI MM NOT_NAMED 1947-01-19 09:00:00 TS -13.7032 62.2237 main 861 861 P____P___PP___ SH101947 -13.0075 63.5475 -1 -14.7420 60.2274 99 -13.0075 63.5475 TC 25 -13.0172 63.5685 7 10 90
1947018S14059 1947 6 SI MM NOT_NAMED 1947-01-19 12:00:00 TS -13.7930 62.6103 main 876 876 O____P___OP___ jtwc_sh SH101947 -13.3000 63.6000 -1 -14.8891 60.3612 99 -13.3000 63.6000 TC 25 -13.3175 63.6296 7 7 111
1947018S14059 1947 6 SI MM NOT_NAMED 1947-01-19 15:00:00 TS -13.9398 62.8735 main 887 869 P____P___PP___ SH101947 -13.5650 63.6575 -1 -15.0453 60.5032 99 -13.5650 63.6575 TC 25 -13.5841 63.6760 7 5 139
1947018S14059 1947 6 SI MM NOT_NAMED 1947-01-19 18:00:00 TS -14.1536 62.9388 main 860 859 O____P___OO___ jtwc_sh SH101947 -13.8000 63.7000 -1 -15.2145 60.6551 99 -13.8000 63.7000 TC 25 -13.8000 63.7000 7 4 166
1947018S14059 1947 6 SI MM NOT_NAMED 1947-01-19 21:00:00 TS -14.3441 62.9831 main 859 842 P____P___PP___ SH101947 -14.0075 63.7075 -1 -15.4006 60.8188 99 -14.0075 63.7075 TC 25 -13.9606 63.6984 7 4 168
1947018S14059 1947 6 SI MM NOT_NAMED 1947-01-20 00:00:00 TS -14.5294 63.0204 main 842 825 O____P___OP___ jtwc_sh SH101947 -14.2000 63.7000 -1 -15.6076 60.9963 99 -14.2000 63.7000 TC 25 -14.1100 63.6855 7 4 168
1947018S14059 1947 6 SI MM NOT_NAMED 1947-01-20 03:00:00 TS -14.7097 63.0598 main 832 808 P____P___PP___ SH101947 -14.3475 63.6851 -1 -15.8395 61.1894 99 -14.3475 63.6851 TC 30 -14.3044 63.6798 7 5 167
1947018S14059 1947 6 SI MM NOT_NAMED 1947-01-20 06:00:00 TS -14.9750 63.1250 reunion main 808 784 O____O___OO___ jtwc_sh SH101947 -14.6000 63.7000 -1 -16.1000 61.4000 99 9.90000 -14.6000 63.7000 TC 35 -14.6000 63.7000 2 7 166
1947018S14059 1947 6 SI MM NOT_NAMED 1947-01-20 09:00:00 TS -15.4227 63.2451 main 784 763 P____P___PP___ SH101947 -15.0900 63.7849 -1 -16.4149 61.6397 99 -15.0900 63.7849 TC 35 -15.0957 63.7709 2 10 166
1947018S14059 1947 6 SI MM NOT_NAMED 1947-01-20 12:00:00 TS -15.9629 63.3923 main 757 732 O____P___OP___ jtwc_sh SH101947 -15.7000 63.9000 -1 -16.7615 61.8995 99 -15.7000 63.9000 TC 35 -15.6901 63.8695 2 11 166
1947018S14059 1947 6 SI MM NOT_NAMED 1947-01-20 15:00:00 TS -16.5225 63.5395 main 732 717 P____P___PP___ SH101947 -16.3225 64.0000 -1 -17.1307 62.1745 99 -16.3225 64.0000 TC 35 -16.3145 63.9834 2 11 165
1947018S14059 1947 6 SI MM NOT_NAMED 1947-01-20 18:00:00 TS -17.0534 63.6899 main 715 709 O____P___OO___ jtwc_sh SH101947 -16.9000 64.1000 -1 -17.5134 62.4597 99 -16.9000 64.1000 TC 35 -16.9000 64.1000 2 10 163
1947018S14059 1947 6 SI MM NOT_NAMED 1947-01-20 21:00:00 TS -17.4686 63.8327 main 704 699 P____P___PP___ SH101947 -17.3300 64.2001 -1 -17.9007 62.7500 99 -17.3300 64.2001 TC 35 -17.3136 64.1805 2 8 161
1947018S14059 1947 6 SI MM NOT_NAMED 1947-01-21 00:00:00 TS -17.8421 63.9760 main 709 700 O____P___OP___ jtwc_sh SH101947 -17.7000 64.3000 -1 -18.2835 63.0403 99 -17.7000 64.3000 TC 35 -17.6848 64.2638 2 8 160
1947018S14059 1947 6 SI MM NOT_NAMED 1947-01-21 03:00:00 TS -18.2104 64.1153 main 701 697 P____P___PP___ SH101947 -18.0625 64.3853 -1 -18.6529 63.3254 99 -18.0625 64.3853 TC 35 -18.0636 64.3652 2 8 160
1947018S14059 1947 6 SI MM NOT_NAMED 1947-01-21 06:00:00 TS -18.6250 64.2750 reunion main 707 701 O____O___OO___ jtwc_sh SH101947 -18.5000 64.5000 -1 -19.0000 63.6000 99 9.90000 -18.5000 64.5000 TC 35 -18.5000 64.5000 2 10 160
1947018S14059 1947 6 SI MM NOT_NAMED 1947-01-21 09:00:00 TS -19.1617 64.4748 main 711 707 P____P___PP___ SH101947 -19.1200 64.6775 -1 -19.3181 63.8598 99 -19.1200 64.6775 TC 35 -19.0888 64.6844 2 12 160
1947018S14059 1947 6 SI MM NOT_NAMED 1947-01-21 12:00:00 TS -19.7360 64.7025 main 723 722 O____P___OP___ jtwc_sh SH101947 -19.8000 64.9000 -1 -19.6089 64.1056 99 -19.8000 64.9000 TC 35 -19.7351 64.9043 2 12 158
1947018S14059 1947 6 SI MM NOT_NAMED 1947-01-21 15:00:00 TS -20.2813 64.9429 main 740 740 P____P___PP___ SH101947 -20.4300 65.1425 -1 -19.8764 64.3394 99 -20.4300 65.1425 TC 35 -20.3888 65.1470 2 11 156
1947018S14059 1947 6 SI MM NOT_NAMED 1947-01-21 18:00:00 TS -20.7811 65.1908 main 772 772 O____P___OO___ jtwc_sh SH101947 -21.0000 65.4000 -1 -20.1246 64.5632 99 -21.0000 65.4000 TC 35 -21.0000 65.4000 2 10 153
1947018S14059 1947 6 SI MM NOT_NAMED 1947-01-21 21:00:00 TS -21.1966 65.4387 main 796 796 P____P___PP___ SH101947 -21.4725 65.6503 -1 -20.3571 64.7791 99 -21.4725 65.6503 TC 35 -21.4842 65.6754 2 10 150
1947018S14059 1947 6 SI MM NOT_NAMED 1947-01-22 00:00:00 TS -21.6417 65.7318 main 832 832 O____P___OP___ jtwc_sh SH101947 -21.9000 65.9000 -1 -20.5780 64.9891 99 -21.9000 65.9000 TC 35 -21.9227 65.9524 2 11 149
1947018S14059 1947 6 SI MM NOT_NAMED 1947-01-22 03:00:00 TS -22.1187 66.0459 main 873 873 P____P___PP___ SH101947 -22.3351 66.1799 -1 -20.7910 65.1953 99 -22.3351 66.1799 TC 35 -22.3499 66.2033 2 12 152
1947018S14059 1947 6 SI MM NOT_NAMED 1947-01-22 06:00:00 TS -22.6615 66.3231 reunion main 919 919 O____O___OO___ jtwc_sh SH101947 -22.8000 66.4000 -1 -21.0000 65.4000 99 9.90000 -22.8000 66.4000 TC 35 -22.8000 66.4000 2 13 161
1947018S14059 1947 6 SI MM NOT_NAMED 1947-01-22 09:00:00 TS -23.3262 66.4871 main 958 958 P________PP___ SH101947 -23.3349 66.4803 -1 99 -23.3349 66.4803 TC 35 -23.3088 66.5007 2 12 172
1947018S14059 1947 6 SI MM NOT_NAMED 1947-01-22 12:00:00 TS -23.8824 66.5156 main 981 981 O________OP___ jtwc_sh SH101947 -23.9000 66.5000 -1 99 -23.9000 66.5000 TC 35 -23.8472 66.5468 2 11 177
1947018S14059 1947 6 SI MM NOT_NAMED 1947-01-22 15:00:00 TS -24.4323 66.5516 main 1012 1012 P________PP___ SH101947 -24.4425 66.5427 -1 99 -24.4425 66.5427 TC 35 -24.4120 66.5695 2 11 176
1947018S14059 1947 6 SI MM NOT_NAMED 1947-01-22 18:00:00 TS -25.0000 66.6000 main 1041 1041 O________OO___ jtwc_sh SH101947 -25.0000 66.6000 -1 99 -25.0000 66.6000 TC 35 -25.0000 66.6000 2 12 174
1947018S14059 1947 6 SI MM NOT_NAMED 1947-01-22 21:00:00 TS -25.5925 66.6829 main 1082 1082 P________PP___ SH101947 -25.5850 66.6925 -1 99 -25.5850 66.6925 TC 35 -25.6076 66.6636 2 12 172
1947018S14059 1947 6 SI MM NOT_NAMED 1947-01-23 00:00:00 TS -26.2101 66.7860 main 1125 1125 O________OP___ jtwc_sh SH101947 -26.2000 66.8000 -1 99 -26.2000 66.8000 TC 35 -26.2302 66.7579 2 13 171
1947018S14059 1947 6 SI MM NOT_NAMED 1947-01-23 03:00:00 TS -26.8492 66.8926 main 1171 1171 P________PP___ SH101947 -26.8425 66.9023 -1 99 -26.8425 66.9023 TC 35 -26.8627 66.8732 2 13 172
1947018S14059 1947 6 SI MM NOT_NAMED 1947-01-23 06:00:00 TS -27.5000 67.0000 main 1225 O________OO___ jtwc_sh SH101947 -27.5000 67.0000 -1 -27.5000 67.0000 TC 35 -27.5000 67.0000 2 13 171

IBTrACS Databaseについて

本データベースは、米国NOAAが公開する1842年以降の世界の熱帯低気圧のベストトラックデータアーカイブInternational Best Track Archive for Climate Stewardship (IBTrACS)を、ウェブで閲覧しやすい形式に変換したものです。

最終更新日:2021-12-03